Time;durP1;ratioP1;P1;durP2;ratioP2;P2;SDS_P1;SDS_P2;PMS_P1;PMS_P2;Temp;Humidity;BMP_temperature;BMP_pressure;BME280_temperature;BME280_humidity;BME280_pressure;Samples;Min_cycle;Max_cycle;Signal;HPM_P1;HPM_P2
2023/09/18 00:00:23;;;;;;;16.90;7.97;;;18.00;99.90;;;;;;5042229;28;20617;-78
2023/09/18 00:02:49;;;;;;;17.88;8.25;;;;;;;;;;5052803;28;20201;-78
2023/09/18 00:05:15;;;;;;;13.32;8.25;;;17.90;99.90;;;;;;5052915;28;20263;-77
2023/09/18 00:07:44;;;;;;;13.73;8.45;;;18.40;99.90;;;;;;5053010;28;20215;-78
2023/09/18 00:10:11;;;;;;;11.63;7.95;;;18.00;99.90;;;;;;5034697;28;20264;-78
2023/09/18 00:12:37;;;;;;;18.45;9.00;;;17.80;99.90;;;;;;5052741;28;20169;-77
2023/09/18 00:15:08;;;;;;;14.90;8.52;;;18.00;99.90;;;;;;5052547;28;20699;-78
2023/09/18 00:17:35;;;;;;;17.67;8.77;;;18.00;99.90;;;;;;5039354;28;20281;-78
2023/09/18 00:20:03;;;;;;;18.75;9.30;;;;;;;;;;5032462;28;20169;-78
2023/09/18 00:22:28;;;;;;;14.88;9.13;;;18.10;99.90;;;;;;5032596;28;20185;-77
2023/09/18 00:24:54;;;;;;;16.75;8.85;;;17.90;99.90;;;;;;5032452;28;20291;-78
2023/09/18 00:27:20;;;;;;;14.88;8.70;;;18.00;99.90;;;;;;5032183;28;20304;-78
2023/09/18 00:29:46;;;;;;;15.43;8.95;;;;;;;;;;5032187;28;20251;-79
2023/09/18 00:32:12;;;;;;;13.75;8.90;;;17.70;99.90;;;;;;5032239;28;20173;-78
2023/09/18 00:34:37;;;;;;;13.65;8.48;;;17.70;99.90;;;;;;5031992;28;20212;-78
2023/09/18 00:37:03;;;;;;;13.52;8.27;;;17.90;99.90;;;;;;5032010;28;20681;-77
2023/09/18 00:39:28;;;;;;;16.15;8.65;;;17.70;99.90;;;;;;5032237;28;20224;-80
2023/09/18 00:41:54;;;;;;;14.05;9.02;;;;;;;;;;5032123;28;20223;-79
2023/09/18 00:44:21;;;;;;;14.82;8.90;;;17.70;99.90;;;;;;5031927;28;20676;-79
2023/09/18 00:46:47;;;;;;;13.75;8.02;;;;;;;;;;5031924;28;20186;-78
2023/09/18 00:49:14;;;;;;;13.57;8.93;;;17.40;99.90;;;;;;5031795;28;20649;-78
2023/09/18 00:51:40;;;;;;;13.73;8.70;;;17.60;99.90;;;;;;5030780;28;20180;-80
2023/09/18 00:54:06;;;;;;;26.08;9.18;;;17.90;99.90;;;;;;5031425;28;20202;-77
2023/09/18 00:56:33;;;;;;;15.68;8.70;;;17.60;99.90;;;;;;5037769;28;20169;-79
2023/09/18 00:59:00;;;;;;;17.95;9.23;;;17.40;99.90;;;;;;5033591;28;20523;-77
2023/09/18 01:01:26;;;;;;;17.02;8.93;;;;;;;;;;5051517;28;20640;-77
2023/09/18 01:03:53;;;;;;;12.70;8.70;;;17.40;99.90;;;;;;5034051;28;20196;-76
2023/09/18 01:06:20;;;;;;;20.75;9.82;;;17.50;99.90;;;;;;5052539;28;20177;-76
2023/09/18 01:08:49;;;;;;;14.45;9.65;;;17.00;99.90;;;;;;5040144;28;20210;-76
2023/09/18 01:11:50;;;;;;;20.42;10.95;;;17.60;99.90;;;;;;5034876;28;20181;-74
2023/09/18 01:14:36;;;;;;;16.80;10.65;;;17.50;99.90;;;;;;5034031;28;20264;-75
2023/09/18 01:17:05;;;;;;;16.80;9.80;;;17.50;99.90;;;;;;5033239;28;20168;-76
2023/09/18 01:19:39;;;;;;;17.75;9.75;;;17.50;99.90;;;;;;5031760;28;20200;-77
2023/09/18 01:22:06;;;;;;;17.95;10.10;;;17.30;99.90;;;;;;5031535;28;20170;-77
2023/09/18 01:24:37;;;;;;;18.13;10.00;;;17.40;99.90;;;;;;5031326;28;20170;-77
2023/09/18 01:27:04;;;;;;;18.33;10.00;;;17.20;99.90;;;;;;5031044;28;20318;-77
2023/09/18 01:29:31;;;;;;;15.57;9.60;;;16.80;99.90;;;;;;5031197;28;20609;-77
2023/09/18 01:31:57;;;;;;;15.90;9.85;;;17.00;99.90;;;;;;5031028;28;20509;-78
2023/09/18 01:34:28;;;;;;;14.90;9.60;;;17.30;99.90;;;;;;5030999;28;20843;-78
2023/09/18 01:36:57;;;;;;;16.70;9.13;;;17.30;99.90;;;;;;5031086;28;20244;-77
2023/09/18 01:39:23;;;;;;;13.05;9.20;;;17.30;99.90;;;;;;5031148;28;20224;-78
2023/09/18 01:41:50;;;;;;;14.90;8.80;;;17.20;99.90;;;;;;5031245;28;20174;-78
2023/09/18 01:44:15;;;;;;;13.85;8.32;;;17.20;99.90;;;;;;5031229;28;20197;-78
2023/09/18 01:46:43;;;;;;;12.35;8.68;;;17.20;99.90;;;;;;5030957;28;20663;-77
2023/09/18 01:49:09;;;;;;;11.38;7.82;;;17.20;99.90;;;;;;5029707;28;20173;-76
2023/09/18 01:51:35;;;;;;;15.60;8.50;;;16.70;99.90;;;;;;5030878;28;20232;-77
2023/09/18 01:54:01;;;;;;;14.20;8.98;;;17.10;99.90;;;;;;5030532;28;20209;-78
2023/09/18 01:56:26;;;;;;;13.23;8.45;;;17.20;99.90;;;;;;5030552;28;20213;-78
2023/09/18 01:58:52;;;;;;;11.23;7.70;;;17.10;99.90;;;;;;5030362;28;20222;-77
2023/09/18 02:01:17;;;;;;;15.25;8.30;;;17.10;99.90;;;;;;5012836;28;20170;-77
2023/09/18 02:03:43;;;;;;;11.95;8.02;;;17.10;99.90;;;;;;5047903;28;20177;-77
2023/09/18 02:06:08;;;;;;;13.15;8.27;;;17.10;99.90;;;;;;5053817;28;20705;-78
2023/09/18 02:08:35;;;;;;;13.93;8.35;;;17.10;99.90;;;;;;5034930;28;20272;-79
2023/09/18 02:11:00;;;;;;;11.13;7.50;;;17.10;99.90;;;;;;5034897;28;20201;-78
2023/09/18 02:13:26;;;;;;;13.80;8.15;;;17.20;99.90;;;;;;5034987;28;20227;-78
2023/09/18 02:15:52;;;;;;;13.30;7.60;;;17.10;99.90;;;;;;5034845;28;20220;-78
2023/09/18 02:18:18;;;;;;;10.93;7.35;;;19.40;99.90;;;;;;5035663;28;20166;-76
2023/09/18 02:20:47;;;;;;;13.98;7.38;;;17.00;99.90;;;;;;5054640;28;20208;-76
2023/09/18 02:23:13;;;;;;;12.43;7.10;;;17.00;99.90;;;;;;5054729;28;20166;-77
2023/09/18 02:25:40;;;;;;;14.90;7.07;;;17.00;99.90;;;;;;5036617;28;20663;-78
2023/09/18 02:28:06;;;;;;;9.20;6.82;;;17.00;99.90;;;;;;5054448;28;20189;-78
2023/09/18 02:30:32;;;;;;;10.40;6.88;;;17.00;99.90;;;;;;5054653;28;20685;-77
2023/09/18 02:32:57;;;;;;;9.18;7.07;;;17.00;99.90;;;;;;5054412;28;20174;-77
2023/09/18 02:35:23;;;;;;;10.15;6.53;;;16.90;99.90;;;;;;5054486;28;20254;-76
2023/09/18 02:37:49;;;;;;;10.13;6.68;;;;;;;;;;5054945;28;20640;-77
2023/09/18 02:40:15;;;;;;;12.10;6.72;;;17.10;99.90;;;;;;5054740;28;20176;-76
2023/09/18 02:42:40;;;;;;;14.30;6.57;;;16.90;99.90;;;;;;5054800;28;20176;-76
2023/09/18 02:45:08;;;;;;;9.85;6.07;;;16.80;99.90;;;;;;5054222;28;20641;-77
2023/09/18 02:47:33;;;;;;;10.82;5.90;;;16.90;99.90;;;;;;5054659;28;20239;-76
2023/09/18 02:49:59;;;;;;;8.98;4.60;;;16.60;99.90;;;;;;5054515;28;20560;-76
2023/09/18 02:52:25;;;;;;;9.05;5.05;;;16.70;99.90;;;;;;5054725;28;20231;-77
2023/09/18 02:54:50;;;;;;;6.38;4.25;;;16.70;99.90;;;;;;5037626;28;20312;-77
2023/09/18 02:57:16;;;;;;;8.02;4.10;;;16.80;99.90;;;;;;5034866;28;20182;-77
2023/09/18 02:59:41;;;;;;;5.57;3.42;;;17.00;99.90;;;;;;5034915;28;20180;-77
2023/09/18 03:02:07;;;;;;;6.10;4.20;;;16.80;99.90;;;;;;5034878;28;20181;-77
2023/09/18 03:04:33;;;;;;;5.78;3.42;;;16.70;99.90;;;;;;5034380;28;20232;-77
2023/09/18 03:06:58;;;;;;;4.20;3.33;;;16.50;99.90;;;;;;5046843;28;20632;-78
2023/09/18 03:09:24;;;;;;;3.72;2.80;;;16.60;99.90;;;;;;5041623;28;20647;-76
2023/09/18 03:11:49;;;;;;;8.70;2.80;;;16.60;99.90;;;;;;5016359;28;20182;-75
2023/09/18 03:14:15;;;;;;;4.85;2.58;;;16.50;99.90;;;;;;5033315;28;20613;-76
2023/09/18 03:16:41;;;;;;;4.13;2.28;;;16.60;99.90;;;;;;5033866;28;20190;-76
2023/09/18 03:19:06;;;;;;;5.18;2.42;;;16.50;99.90;;;;;;5033994;28;20244;-77
2023/09/18 03:21:35;;;;;;;4.55;2.45;;;16.60;99.90;;;;;;5033610;28;20220;-76
2023/09/18 03:24:01;;;;;;;5.18;2.67;;;16.40;99.90;;;;;;5033814;28;20189;-75
2023/09/18 03:26:26;;;;;;;3.42;2.67;;;16.40;99.90;;;;;;5034118;28;20213;-76
2023/09/18 03:28:52;;;;;;;4.80;3.40;;;16.60;99.90;;;;;;5033989;28;20203;-76
2023/09/18 03:31:17;;;;;;;3.53;2.75;;;16.40;99.90;;;;;;5034490;28;20655;-76
2023/09/18 03:33:43;;;;;;;4.35;3.17;;;16.30;99.90;;;;;;5033899;28;20178;-75
2023/09/18 03:36:11;;;;;;;7.05;3.15;;;16.20;99.90;;;;;;5016374;28;20216;-75
2023/09/18 03:38:37;;;;;;;7.10;3.80;;;16.10;99.90;;;;;;5033822;28;20177;-73
2023/09/18 03:41:02;;;;;;;5.93;3.72;;;16.00;99.90;;;;;;5033548;28;20285;-75
2023/09/18 03:43:28;;;;;;;4.60;3.72;;;16.10;99.90;;;;;;5015478;28;20690;-75
2023/09/18 03:45:53;;;;;;;5.15;3.45;;;15.90;99.90;;;;;;5015591;28;20170;-77
2023/09/18 03:48:20;;;;;;;5.20;3.85;;;15.90;99.90;;;;;;5032998;28;20640;-75
2023/09/18 03:50:47;;;;;;;4.85;3.08;;;15.90;99.90;;;;;;5033043;28;20174;-75
2023/09/18 03:53:13;;;;;;;5.05;3.17;;;15.60;99.90;;;;;;5033098;28;20186;-75
2023/09/18 03:55:39;;;;;;;3.60;2.70;;;15.70;99.90;;;;;;5030420;28;20213;-76
2023/09/18 03:58:05;;;;;;;6.13;2.47;;;15.60;99.90;;;;;;5032501;28;20717;-75
2023/09/18 04:00:30;;;;;;;4.68;2.13;;;15.70;99.90;;;;;;5032846;28;20216;-76
2023/09/18 04:02:56;;;;;;;3.28;1.80;;;15.90;99.90;;;;;;5032542;28;20197;-75
2023/09/18 04:05:22;;;;;;;6.18;2.20;;;15.80;99.90;;;;;;5049304;28;20173;-75
2023/09/18 04:07:47;;;;;;;7.65;1.80;;;15.50;99.90;;;;;;5049389;28;20170;-76
2023/09/18 04:10:19;;;;;;;4.00;1.75;;;15.80;99.90;;;;;;5014721;28;20184;-75
2023/09/18 04:12:46;;;;;;;3.78;1.65;;;15.60;99.90;;;;;;5032365;28;20173;-75
2023/09/18 04:15:14;;;;;;;3.28;1.58;;;15.60;99.90;;;;;;5014666;28;20687;-75
2023/09/18 04:17:40;;;;;;;3.15;1.48;;;;;;;;;;5014749;28;20178;-75
2023/09/18 04:20:06;;;;;;;3.97;1.60;;;15.50;99.90;;;;;;5018809;28;20670;-75
2023/09/18 04:22:31;;;;;;;4.38;1.50;;;15.60;99.90;;;;;;5052275;28;20169;-76
2023/09/18 04:24:57;;;;;;;3.33;1.50;;;;;;;;;;5052229;28;20235;-76
2023/09/18 04:27:23;;;;;;;2.63;1.75;;;15.30;99.90;;;;;;5050876;28;20715;-75
2023/09/18 04:29:49;;;;;;;5.28;1.50;;;15.20;99.90;;;;;;5051713;28;20230;-74
2023/09/18 04:32:14;;;;;;;3.67;1.40;;;15.50;99.90;;;;;;5052083;28;20227;-74
2023/09/18 04:34:40;;;;;;;3.28;2.03;;;15.30;99.90;;;;;;5052059;28;20207;-74
2023/09/18 04:37:06;;;;;;;2.92;1.63;;;15.30;99.90;;;;;;5051889;28;20172;-75
2023/09/18 04:39:33;;;;;;;3.70;2.03;;;15.20;99.90;;;;;;5052107;28;20173;-74
2023/09/18 04:42:01;;;;;;;6.82;2.67;;;15.20;99.90;;;;;;5051923;28;20541;-77
2023/09/18 04:44:27;;;;;;;4.18;2.30;;;15.30;99.90;;;;;;5051949;28;20169;-77
2023/09/18 04:46:52;;;;;;;5.05;2.80;;;15.50;99.90;;;;;;5052066;28;20223;-80
2023/09/18 04:49:18;;;;;;;4.30;3.05;;;15.20;99.90;;;;;;5052204;28;20173;-77
2023/09/18 04:51:44;;;;;;;4.60;3.45;;;15.30;99.90;;;;;;5034124;28;20193;-78
2023/09/18 04:54:10;;;;;;;4.70;3.08;;;15.40;99.90;;;;;;5051750;28;20208;-76
2023/09/18 04:56:37;;;;;;;7.03;3.55;;;15.40;99.90;;;;;;5047627;28;20192;-77
2023/09/18 04:59:03;;;;;;;7.35;3.90;;;15.40;99.90;;;;;;5031553;28;20178;-76
2023/09/18 05:01:30;;;;;;;6.00;4.03;;;15.30;99.90;;;;;;5031870;28;20177;-76
2023/09/18 05:03:55;;;;;;;8.02;4.13;;;15.40;99.90;;;;;;5031578;28;20170;-76
2023/09/18 05:06:21;;;;;;;5.38;3.97;;;15.30;99.90;;;;;;5040381;28;20272;-78
2023/09/18 05:08:47;;;;;;;7.65;4.40;;;15.20;99.90;;;;;;5031482;28;20617;-77
2023/09/18 05:11:13;;;;;;;6.05;4.15;;;;;;;;;;5031741;28;20174;-77
2023/09/18 05:13:38;;;;;;;3.95;3.50;;;15.10;99.90;;;;;;5031111;28;20645;-78
2023/09/18 05:16:04;;;;;;;7.90;4.32;;;15.00;99.90;;;;;;5042196;28;20209;-77
2023/09/18 05:18:30;;;;;;;7.43;4.40;;;;;;;;;;5041258;28;20185;-77
2023/09/18 05:20:55;;;;;;;7.00;4.50;;;14.90;99.90;;;;;;5031530;28;20174;-77
2023/09/18 05:23:21;;;;;;;8.40;4.55;;;15.20;99.90;;;;;;5031603;28;20192;-77
2023/09/18 05:25:47;;;;;;;5.65;3.83;;;;;;;;;;5051522;28;20636;-77
2023/09/18 05:28:13;;;;;;;7.55;4.07;;;15.00;99.90;;;;;;5062510;28;20162;-75
2023/09/18 05:30:39;;;;;;;6.13;4.18;;;15.00;99.90;;;;;;5061951;28;20243;-75
2023/09/18 05:33:06;;;;;;;6.82;4.40;;;15.00;99.90;;;;;;5052903;28;20223;-74
2023/09/18 05:35:36;;;;;;;8.02;4.60;;;14.90;99.90;;;;;;5033139;28;20212;-73
2023/09/18 05:38:03;;;;;;;7.10;4.65;;;14.60;99.90;;;;;;5011188;28;20178;-75
2023/09/18 05:40:29;;;;;;;6.70;4.43;;;14.90;99.90;;;;;;5011465;28;20167;-75
2023/09/18 05:42:55;;;;;;;6.50;4.72;;;15.00;99.90;;;;;;5011469;28;20689;-75
2023/09/18 05:45:22;;;;;;;7.68;4.88;;;14.70;99.90;;;;;;5011583;28;20188;-75
2023/09/18 05:47:48;;;;;;;8.20;4.45;;;14.70;99.90;;;;;;5011282;28;20167;-75
2023/09/18 05:50:17;;;;;;;8.80;5.13;;;14.60;99.90;;;;;;5011417;28;20181;-74
2023/09/18 05:52:48;;;;;;;11.93;5.38;;;14.60;99.90;;;;;;5011367;28;20170;-74
2023/09/18 05:55:15;;;;;;;7.43;5.20;;;14.80;99.90;;;;;;5011164;28;20214;-75
2023/09/18 05:57:40;;;;;;;8.50;4.97;;;14.50;99.90;;;;;;5011045;28;20174;-76
2023/09/18 06:00:07;;;;;;;8.70;5.13;;;14.70;99.90;;;;;;5011041;28;20185;-75
2023/09/18 06:02:32;;;;;;;10.82;5.05;;;14.80;99.90;;;;;;5011125;28;20182;-75
2023/09/18 06:05:00;;;;;;;6.80;5.05;;;14.60;99.90;;;;;;5011237;28;20580;-75
2023/09/18 06:07:29;;;;;;;7.95;5.35;;;14.70;99.90;;;;;;5011149;28;20562;-74
2023/09/18 06:09:56;;;;;;;8.30;4.90;;;14.60;99.90;;;;;;5011065;28;20171;-75
2023/09/18 06:12:21;;;;;;;7.18;4.70;;;14.60;99.90;;;;;;5012993;28;20179;-75
2023/09/18 06:14:48;;;;;;;9.13;4.55;;;14.60;99.90;;;;;;5030805;28;20220;-75
2023/09/18 06:17:14;;;;;;;6.25;4.65;;;14.70;99.90;;;;;;5030796;28;20568;-74
2023/09/18 06:19:40;;;;;;;8.23;4.85;;;14.70;99.90;;;;;;5030737;28;20181;-77
2023/09/18 06:22:07;;;;;;;9.07;4.75;;;14.70;99.90;;;;;;5034143;28;20165;-74
2023/09/18 06:24:34;;;;;;;8.85;4.90;;;14.70;99.90;;;;;;5050344;28;20177;-74
2023/09/18 06:26:59;;;;;;;6.82;4.95;;;14.70;99.90;;;;;;5039780;28;20222;-75
2023/09/18 06:29:25;;;;;;;6.72;4.25;;;14.60;99.90;;;;;;5030561;28;20522;-75
2023/09/18 06:31:51;;;;;;;5.30;4.07;;;14.60;99.90;;;;;;5028054;28;20277;-74
2023/09/18 06:34:16;;;;;;;5.68;4.28;;;14.80;99.90;;;;;;5030267;28;20534;-75
2023/09/18 06:36:42;;;;;;;6.75;4.70;;;15.00;99.90;;;;;;5030187;28;20220;-75
2023/09/18 06:39:08;;;;;;;5.50;4.53;;;15.00;99.90;;;;;;5030230;28;20166;-76
2023/09/18 06:41:33;;;;;;;7.80;4.90;;;14.90;99.90;;;;;;5029762;28;20512;-75
2023/09/18 06:44:02;;;;;;;8.55;4.97;;;;;;;;;;5030237;28;20536;-76
2023/09/18 06:46:28;;;;;;;7.47;4.82;;;15.10;99.90;;;;;;5012661;28;20577;-76
2023/09/18 06:48:54;;;;;;;10.88;5.05;;;15.10;99.90;;;;;;5030301;28;20178;-75
2023/09/18 06:51:19;;;;;;;10.70;5.40;;;15.20;99.90;;;;;;5033717;28;20366;-75
2023/09/18 06:53:45;;;;;;;9.20;4.97;;;15.30;99.90;;;;;;5016207;28;20170;-76
2023/09/18 06:56:12;;;;;;;7.60;5.22;;;;;;;;;;5016486;28;20189;-75
2023/09/18 06:58:38;;;;;;;6.45;4.18;;;15.50;99.90;;;;;;5033766;28;20174;-76
2023/09/18 07:01:06;;;;;;;5.32;3.80;;;15.60;99.90;;;;;;5033806;28;20639;-75
2023/09/18 07:03:36;;;;;;;5.20;3.78;;;15.80;99.90;;;;;;5033740;28;20178;-75
2023/09/18 07:06:04;;;;;;;4.75;3.45;;;15.90;99.90;;;;;;5033819;28;20197;-77
2023/09/18 07:08:30;;;;;;;6.53;3.20;;;16.00;99.90;;;;;;5031664;28;20178;-77
2023/09/18 07:10:55;;;;;;;7.10;3.35;;;16.10;99.90;;;;;;5031411;28;20231;-81
2023/09/18 07:13:21;;;;;;;4.68;3.78;;;16.20;99.90;;;;;;5033979;28;20178;-77
2023/09/18 07:15:47;;;;;;;3.75;2.72;;;16.30;99.90;;;;;;5038128;28;20213;-77
2023/09/18 07:18:14;;;;;;;5.72;2.63;;;16.40;99.90;;;;;;5053519;28;20180;-77
2023/09/18 07:20:43;;;;;;;5.93;2.67;;;16.40;99.90;;;;;;5037585;28;20255;-75
2023/09/18 07:23:09;;;;;;;5.30;2.83;;;16.30;99.90;;;;;;5013803;28;20182;-77
2023/09/18 07:25:38;;;;;;;3.85;2.35;;;16.20;99.90;;;;;;5022315;28;20253;-78
2023/09/18 07:28:05;;;;;;;5.78;2.63;;;16.30;99.90;;;;;;5033047;28;20178;-77
2023/09/18 07:30:31;;;;;;;5.60;2.42;;;16.40;99.90;;;;;;5033103;28;20645;-76
2023/09/18 07:32:57;;;;;;;4.15;2.30;;;16.40;99.90;;;;;;5033132;28;20181;-77
2023/09/18 07:35:23;;;;;;;5.55;2.35;;;16.40;99.90;;;;;;5033068;28;20210;-77
2023/09/18 07:37:49;;;;;;;5.20;2.80;;;16.30;99.90;;;;;;5032279;28;20166;-77
2023/09/18 07:40:18;;;;;;;7.22;2.85;;;16.30;99.90;;;;;;5033192;28;20216;-76
2023/09/18 07:42:43;;;;;;;6.55;2.75;;;16.30;99.90;;;;;;5033075;28;20170;-75
2023/09/18 07:45:10;;;;;;;7.68;2.60;;;16.40;99.90;;;;;;5032768;28;20195;-77
2023/09/18 07:47:35;;;;;;;7.95;2.88;;;16.20;99.90;;;;;;5033315;28;20658;-80
2023/09/18 07:50:01;;;;;;;5.82;2.92;;;16.20;99.90;;;;;;5033115;28;20648;-78
2023/09/18 07:52:29;;;;;;;6.00;2.67;;;16.20;99.90;;;;;;5034396;28;20573;-78
2023/09/18 07:54:54;;;;;;;5.55;2.92;;;16.20;99.90;;;;;;5052087;28;20662;-77
2023/09/18 07:57:20;;;;;;;9.30;3.10;;;16.20;99.90;;;;;;5032495;28;20181;-76
2023/09/18 07:59:46;;;;;;;6.53;2.70;;;16.00;99.90;;;;;;5032385;28;20201;-76
2023/09/18 08:02:12;;;;;;;5.40;2.58;;;16.30;99.90;;;;;;5032549;28;20217;-76
2023/09/18 08:04:37;;;;;;;7.40;2.90;;;16.30;99.90;;;;;;5032663;28;20568;-77
2023/09/18 08:07:06;;;;;;;6.63;2.72;;;16.10;99.90;;;;;;5032777;28;20204;-75
2023/09/18 08:09:36;;;;;;;7.18;2.70;;;16.30;99.90;;;;;;5032514;28;20182;-75
2023/09/18 08:12:05;;;;;;;3.92;2.40;;;16.40;99.90;;;;;;5032462;28;20186;-76
2023/09/18 08:14:31;;;;;;;4.60;2.67;;;16.30;99.90;;;;;;5032696;28;20205;-76
2023/09/18 08:17:00;;;;;;;8.07;2.95;;;16.40;99.90;;;;;;5032330;28;20170;-76
2023/09/18 08:19:27;;;;;;;6.03;2.70;;;16.40;99.90;;;;;;5032053;28;20186;-76
2023/09/18 08:22:03;;;;;;;6.40;2.72;;;16.40;99.90;;;;;;5032362;28;20249;-75
2023/09/18 08:24:29;;;;;;;6.07;2.97;;;16.50;99.90;;;;;;5032280;28;20189;-75
2023/09/18 08:26:55;;;;;;;5.63;2.95;;;;;;;;;;5025957;28;20222;-76
2023/09/18 08:29:22;;;;;;;4.60;2.38;;;16.60;99.90;;;;;;5032161;28;20625;-76
2023/09/18 08:31:49;;;;;;;4.75;2.03;;;16.60;99.90;;;;;;5013925;28;20686;-76
2023/09/18 08:34:14;;;;;;;7.40;1.92;;;16.50;99.90;;;;;;5032072;28;20190;-77
2023/09/18 08:36:40;;;;;;;7.35;2.40;;;16.60;99.90;;;;;;5032142;28;20189;-77
2023/09/18 08:39:06;;;;;;;4.63;1.80;;;16.60;99.90;;;;;;5032091;28;20170;-76
2023/09/18 08:41:32;;;;;;;5.93;1.90;;;16.70;99.90;;;;;;5031928;28;20184;-76
2023/09/18 08:44:03;;;;;;;6.47;1.95;;;16.70;99.90;;;;;;5031643;28;20671;-77
2023/09/18 08:46:29;;;;;;;5.82;1.85;;;16.80;99.90;;;;;;5035426;28;20173;-75
2023/09/18 08:48:56;;;;;;;3.33;1.70;;;16.70;99.90;;;;;;5051861;28;20210;-76
2023/09/18 08:51:23;;;;;;;3.78;1.67;;;16.80;99.90;;;;;;5040924;28;20174;-76
2023/09/18 08:53:49;;;;;;;2.92;1.48;;;16.90;99.90;;;;;;5014219;28;20178;-76
2023/09/18 08:56:16;;;;;;;2.70;1.27;;;16.90;99.90;;;;;;5031347;28;20281;-76
2023/09/18 08:58:43;;;;;;;9.13;1.40;;;17.20;99.90;;;;;;5031252;28;20185;-76
2023/09/18 09:01:09;;;;;;;2.88;1.27;;;17.20;99.90;;;;;;5031828;28;20170;-75
2023/09/18 09:03:38;;;;;;;1.80;0.90;;;17.20;99.90;;;;;;5031941;28;20224;-76
2023/09/18 09:06:04;;;;;;;4.80;1.30;;;17.90;99.90;;;;;;5032343;28;20181;-77
2023/09/18 09:08:29;;;;;;;3.50;1.00;;;17.50;99.90;;;;;;5031569;28;20262;-79
2023/09/18 09:10:57;;;;;;;4.15;1.10;;;17.60;99.90;;;;;;5031697;28;20533;-77
2023/09/18 09:13:26;;;;;;;1.85;0.77;;;17.70;99.90;;;;;;5030430;28;20174;-76
2023/09/18 09:15:55;;;;;;;2.25;0.73;;;18.00;99.90;;;;;;5030846;28;20205;-75
2023/09/18 09:18:22;;;;;;;4.85;0.80;;;18.10;99.90;;;;;;5031375;28;20173;-75
2023/09/18 09:20:59;;;;;;;1.85;0.82;;;17.90;99.90;;;;;;5031098;28;20172;-73
2023/09/18 09:23:27;;;;;;;2.83;0.90;;;17.70;99.90;;;;;;5032212;28;20200;-75
2023/09/18 09:25:53;;;;;;;1.10;0.50;;;17.70;99.90;;;;;;5038859;28;20267;-75
2023/09/18 09:28:31;;;;;;;2.72;0.90;;;17.60;99.90;;;;;;5031005;28;20166;-77
2023/09/18 09:31:02;;;;;;;1.73;0.50;;;17.50;99.90;;;;;;5031007;28;20182;-75
2023/09/18 09:33:32;;;;;;;2.33;0.75;;;17.50;99.90;;;;;;5031130;28;20178;-76
2023/09/18 09:35:59;;;;;;;2.40;0.80;;;17.50;99.90;;;;;;5030406;28;20214;-76
2023/09/18 09:38:33;;;;;;;2.75;0.95;;;17.60;99.90;;;;;;5029966;28;20178;-75
2023/09/18 09:41:00;;;;;;;9.55;0.82;;;17.70;99.90;;;;;;5032220;28;20187;-75
2023/09/18 09:43:27;;;;;;;0.77;0.55;;;17.70;99.90;;;;;;5035497;28;20261;-74
2023/09/18 09:46:02;;;;;;;2.85;0.70;;;17.70;99.90;;;;;;5030226;28;20196;-74
2023/09/18 09:48:31;;;;;;;3.55;0.90;;;17.60;99.90;;;;;;5013234;28;20173;-75
2023/09/18 09:51:01;;;;;;;3.28;0.60;;;17.60;99.90;;;;;;5030966;28;20265;-75
2023/09/18 09:53:58;;;;;;;1.30;0.60;;;17.50;99.90;;;;;;5031460;28;20245;-75
2023/09/18 09:56:43;;;;;;;1.08;0.55;;;17.50;99.90;;;;;;4997450;28;20688;-74
2023/09/18 09:59:11;;;;;;;3.38;0.80;;;17.40;99.90;;;;;;5030413;28;20173;-75
2023/09/18 10:01:38;;;;;;;3.25;0.70;;;17.30;99.90;;;;;;5030492;28;20669;-74
2023/09/18 10:04:08;;;;;;;3.90;0.98;;;17.40;99.90;;;;;;5030152;28;20717;-74
2023/09/18 10:06:36;;;;;;;1.30;0.68;;;17.50;99.90;;;;;;5030157;28;20631;-74
2023/09/18 10:09:07;;;;;;;3.92;2.20;;;17.80;99.90;;;;;;5003926;28;20272;-74
2023/09/18 10:11:36;;;;;;;1.38;0.73;;;17.90;99.90;;;;;;5029078;28;20642;-76
2023/09/18 10:14:11;;;;;;;2.25;1.05;;;18.00;99.90;;;;;;5030280;28;20178;-77
2023/09/18 10:16:41;;;;;;;2.35;0.80;;;18.50;99.90;;;;;;5030893;28;20211;-78
2023/09/18 10:19:28;;;;;;;3.25;0.90;;;18.20;99.90;;;;;;5030719;28;20177;-78
2023/09/18 10:22:20;;;;;;;4.88;1.05;;;18.30;99.90;;;;;;5030958;28;20215;-75
2023/09/18 10:24:49;;;;;;;1.85;0.68;;;18.10;99.90;;;;;;5031974;28;20652;-80
2023/09/18 10:27:15;;;;;;;2.28;0.68;;;17.90;99.90;;;;;;5033259;28;20304;-81
2023/09/18 10:29:41;;;;;;;1.73;0.50;;;17.90;99.90;;;;;;5033506;28;20182;-78
2023/09/18 10:32:08;;;;;;;0.82;0.40;;;17.90;99.90;;;;;;5034876;28;20173;-80
2023/09/18 10:34:35;;;;;;;2.92;0.60;;;17.90;99.90;;;;;;5034591;28;20225;-79
2023/09/18 10:37:06;;;;;;;5.53;0.70;;;17.90;99.90;;;;;;5034496;28;20534;-80
2023/09/18 10:39:35;;;;;;;2.05;0.90;;;17.80;99.90;;;;;;5034913;28;20190;-84
2023/09/18 10:42:02;;;;;;;2.60;1.10;;;17.80;99.90;;;;;;5034369;28;20637;-84
2023/09/18 10:44:29;;;;;;;1.63;1.45;;;18.00;99.90;;;;;;5034780;28;20178;-80
2023/09/18 10:46:55;;;;;;;3.42;1.50;;;18.30;99.90;;;;;;5034495;28;20193;-80
2023/09/18 10:49:21;;;;;;;3.35;1.80;;;18.40;99.90;;;;;;5034578;28;20595;-79
2023/09/18 10:51:48;;;;;;;3.75;1.92;;;18.50;99.90;;;;;;5034327;28;20260;-75
2023/09/18 10:54:21;;;;;;;4.28;2.13;;;18.40;99.90;;;;;;5034110;28;20210;-78
2023/09/18 10:56:47;;;;;;;3.97;2.08;;;18.30;99.90;;;;;;5034400;28;20641;-80
2023/09/18 10:59:14;;;;;;;6.97;2.42;;;18.30;99.90;;;;;;5034013;28;20184;-77
2023/09/18 11:01:40;;;;;;;3.25;2.33;;;18.30;99.90;;;;;;5034020;28;20177;-79
2023/09/18 11:04:09;;;;;;;6.07;2.47;;;18.40;99.90;;;;;;5034017;28;20174;-79
2023/09/18 11:06:53;;;;;;;5.57;2.38;;;18.50;99.90;;;;;;5033875;28;20178;-78
2023/09/18 11:09:27;;;;;;;5.72;2.22;;;18.30;99.90;;;;;;5034103;28;20196;-78
2023/09/18 11:12:02;;;;;;;3.75;2.05;;;18.10;99.90;;;;;;5033748;28;20177;-77
2023/09/18 11:14:46;;;;;;;4.28;1.75;;;18.20;99.90;;;;;;5033472;28;20742;-78
2023/09/18 11:17:37;;;;;;;2.88;1.75;;;18.40;99.90;;;;;;5034014;28;20169;-79
2023/09/18 11:20:16;;;;;;;5.70;1.58;;;18.50;99.90;;;;;;5033789;28;20518;-79
2023/09/18 11:22:57;;;;;;;6.05;1.83;;;18.90;99.90;;;;;;5015828;28;20299;-78
2023/09/18 11:25:37;;;;;;;3.70;1.40;;;19.60;99.90;;;;;;5033890;28;20196;-80
2023/09/18 11:28:03;;;;;;;3.55;1.50;;;19.70;99.90;;;;;;5033427;28;20213;-80
2023/09/18 11:30:31;;;;;;;6.47;1.60;;;20.20;99.90;;;;;;5025125;28;20190;-79
2023/09/18 11:32:57;;;;;;;4.10;1.48;;;20.60;99.90;;;;;;4996774;28;20198;-82
2023/09/18 11:35:24;;;;;;;4.60;1.30;;;21.30;99.90;;;;;;5016549;28;20677;-79
2023/09/18 11:38:10;;;;;;;4.50;1.50;;;21.80;99.90;;;;;;5030752;28;20186;-78
2023/09/18 11:40:38;;;;;;;3.53;1.42;;;22.40;99.90;;;;;;5030458;28;20331;-79
2023/09/18 11:43:25;;;;;;;2.90;1.23;;;22.60;99.90;;;;;;5032469;28;20197;-84
2023/09/18 11:45:55;;;;;;;2.45;1.17;;;23.20;99.90;;;;;;5032705;28;20200;-79
2023/09/18 11:48:25;;;;;;;5.88;1.15;;;23.90;99.90;;;;;;5046551;28;20177;-79
2023/09/18 11:50:51;;;;;;;3.75;1.00;;;23.50;99.90;;;;;;5052026;28;20173;-79
2023/09/18 11:53:21;;;;;;;3.15;1.15;;;22.60;99.90;;;;;;5014885;28;20264;-78
2023/09/18 11:55:47;;;;;;;2.13;0.95;;;22.60;99.90;;;;;;5033651;28;20213;-77
2023/09/18 11:58:13;;;;;;;3.53;0.88;;;22.40;99.90;;;;;;5039056;28;20227;-78
2023/09/18 12:00:45;;;;;;;5.85;1.13;;;22.20;1.00;;;;;;5041192;28;20169;-78
2023/09/18 12:03:24;;;;;;;2.92;1.00;;;22.40;56.40;;;;;;5031317;28;20201;-79
2023/09/18 12:06:02;;;;;;;3.75;1.30;;;22.50;21.80;;;;;;5013045;28;20173;-79
2023/09/18 12:08:32;;;;;;;3.78;0.90;;;23.30;99.90;;;;;;5031828;28;20173;-79
2023/09/18 12:10:58;;;;;;;4.43;1.10;;;23.50;99.90;;;;;;5032806;28;20177;-78
2023/09/18 12:13:27;;;;;;;4.47;1.10;;;22.50;99.90;;;;;;5032716;28;20184;-77
2023/09/18 12:16:04;;;;;;;4.70;1.10;;;21.50;1.00;;;;;;5032389;28;20300;-77
2023/09/18 12:18:32;;;;;;;1.58;1.10;;;21.30;1.00;;;;;;5032471;28;20158;-78
2023/09/18 12:20:58;;;;;;;2.95;1.38;;;21.20;11.00;;;;;;5032315;28;20185;-78
2023/09/18 12:23:24;;;;;;;3.63;1.10;;;21.20;1.00;;;;;;5032538;28;20170;-78
2023/09/18 12:25:58;;;;;;;3.45;0.90;;;21.00;1.00;;;;;;5032465;28;20271;-78
2023/09/18 12:28:28;;;;;;;3.22;1.27;;;21.10;1.00;;;;;;5032104;28;20174;-78
2023/09/18 12:30:56;;;;;;;4.60;1.25;;;21.20;63.90;;;;;;5032595;28;20253;-79
2023/09/18 12:33:25;;;;;;;2.40;1.00;;;21.80;1.00;;;;;;5032196;28;20285;-78
2023/09/18 12:35:54;;;;;;;3.60;1.00;;;21.90;1.00;;;;;;5032258;28;20210;-82
2023/09/18 12:38:24;;;;;;;4.63;1.10;;;21.80;1.00;;;;;;5032112;28;20170;-77
2023/09/18 12:40:50;;;;;;;5.03;1.70;;;21.40;1.00;;;;;;5031900;28;20513;-78
2023/09/18 12:43:16;;;;;;;4.55;0.88;;;21.60;1.00;;;;;;5032075;28;20170;-80
2023/09/18 12:45:47;;;;;;;5.40;1.30;;;20.70;1.00;;;;;;5032049;28;20178;-80
2023/09/18 12:48:13;;;;;;;2.35;0.82;;;20.60;1.00;;;;;;5031133;28;20181;-76
2023/09/18 12:50:39;;;;;;;2.20;0.90;;;20.30;1.00;;;;;;5032054;28;20181;-78
2023/09/18 12:53:14;;;;;;;7.30;1.30;;;20.90;1.00;;;;;;5032050;28;20174;-78